createdAt,value
2022-12-08T00:02:44.831Z,5.40
2022-12-08T00:08:06.847Z,5.20
2022-12-08T00:13:10.305Z,3.00
2022-12-08T00:18:13.921Z,4.40
2022-12-08T00:23:17.430Z,4.50
2022-12-08T00:28:20.695Z,4.70
2022-12-08T00:33:24.254Z,3.90
2022-12-08T00:38:27.426Z,4.30
2022-12-08T00:43:30.751Z,4.30
2022-12-08T00:48:34.050Z,4.00
2022-12-08T00:53:37.256Z,4.50
2022-12-08T00:58:40.426Z,4.10
2022-12-08T01:03:44.524Z,3.30
2022-12-08T01:08:48.426Z,4.90
2022-12-08T01:13:51.649Z,4.00
2022-12-08T01:18:55.028Z,4.90
2022-12-08T01:24:00.834Z,4.20
2022-12-08T01:29:04.072Z,4.90
2022-12-08T01:34:08.991Z,5.90
2022-12-08T01:39:18.217Z,4.50
2022-12-08T01:44:21.363Z,4.30
2022-12-08T01:49:35.383Z,4.70
2022-12-08T01:54:51.226Z,5.10
2022-12-08T02:00:02.942Z,5.00
2022-12-08T02:05:07.246Z,4.20
2022-12-08T02:10:15.114Z,5.00
2022-12-08T02:15:19.116Z,4.20
2022-12-08T02:20:56.615Z,4.50
2022-12-08T02:26:11.566Z,4.10
2022-12-08T02:31:37.501Z,4.20
2022-12-08T02:36:43.754Z,3.80
2022-12-08T02:41:54.305Z,3.30
2022-12-08T02:47:10.911Z,4.20
2022-12-08T02:52:14.067Z,4.70
2022-12-08T02:57:48.665Z,2.20
2022-12-08T03:03:08.302Z,4.20
2022-12-08T03:08:33.232Z,3.80
2022-12-08T03:13:47.463Z,3.60
2022-12-08T03:19:02.128Z,4.80
2022-12-08T03:24:07.998Z,6.00
2022-12-08T03:29:12.806Z,6.60
2022-12-08T03:34:19.188Z,5.70
2022-12-08T03:39:22.433Z,6.40
2022-12-08T03:44:25.703Z,5.80
2022-12-08T03:49:29.092Z,5.70
2022-12-08T03:54:32.381Z,5.60
2022-12-08T03:59:35.608Z,5.50
2022-12-08T04:04:38.867Z,3.50
2022-12-08T04:09:42.398Z,6.40
2022-12-08T04:14:45.603Z,7.50
2022-12-08T04:19:48.882Z,5.30
2022-12-08T04:24:52.049Z,4.70
2022-12-08T04:29:55.413Z,5.40
2022-12-08T04:34:58.545Z,5.00
2022-12-08T04:40:02.222Z,3.70
2022-12-08T04:45:06.557Z,6.40
2022-12-08T04:50:10.409Z,8.40
2022-12-08T04:55:13.608Z,8.10
2022-12-08T05:00:20.944Z,6.90
2022-12-08T05:05:24.674Z,4.80
2022-12-08T05:10:27.976Z,3.70
2022-12-08T05:15:31.144Z,5.60
2022-12-08T05:20:35.186Z,4.40
2022-12-08T05:25:38.535Z,4.80
2022-12-08T05:30:41.930Z,6.30
2022-12-08T05:35:45.192Z,6.30
2022-12-08T05:40:54.579Z,4.60
2022-12-08T05:45:58.341Z,5.90
2022-12-08T05:51:01.652Z,6.30
2022-12-08T05:56:05.074Z,5.00
2022-12-08T06:01:08.848Z,4.80
2022-12-08T06:06:12.109Z,6.30
2022-12-08T06:11:27.071Z,5.50
2022-12-08T06:16:30.831Z,5.20
2022-12-08T06:21:34.289Z,5.60
2022-12-08T06:26:37.641Z,5.50
2022-12-08T06:31:41.086Z,4.00
2022-12-08T06:36:44.449Z,2.80
2022-12-08T06:42:06.198Z,3.80
2022-12-08T06:47:10.196Z,3.10
2022-12-08T06:52:13.466Z,5.50
2022-12-08T06:57:18.709Z,6.60
2022-12-08T07:02:22.451Z,6.80
2022-12-08T07:07:25.808Z,6.30
2022-12-08T07:12:30.073Z,5.60
2022-12-08T07:17:33.467Z,4.90
2022-12-08T07:22:37.064Z,5.00
2022-12-08T07:27:40.641Z,4.40
2022-12-08T07:32:43.928Z,4.30
2022-12-08T07:37:47.121Z,3.60
2022-12-08T07:42:50.329Z,3.70
2022-12-08T07:47:53.552Z,2.60
2022-12-08T07:52:57.015Z,4.40
2022-12-08T07:58:00.408Z,5.10
2022-12-08T08:03:03.923Z,4.10
2022-12-08T08:08:07.712Z,3.50
2022-12-08T08:13:11.198Z,2.80
2022-12-08T08:18:14.689Z,2.60
2022-12-08T08:23:17.839Z,3.00
2022-12-08T08:28:22.324Z,3.00
2022-12-08T08:33:26.433Z,2.80
2022-12-08T08:38:29.937Z,3.20
2022-12-08T08:43:38.037Z,3.00
2022-12-08T08:48:42.715Z,2.90
2022-12-08T08:53:46.946Z,1.90
2022-12-08T08:58:52.695Z,1.80
2022-12-08T09:03:57.376Z,2.20
2022-12-08T09:09:06.434Z,2.20
2022-12-08T09:14:14.962Z,3.90
2022-12-08T09:19:18.209Z,4.10
2022-12-08T09:24:21.423Z,3.30
2022-12-08T09:29:26.872Z,3.60
2022-12-08T09:34:32.434Z,5.00
2022-12-08T09:39:36.344Z,5.20
2022-12-08T09:45:03.378Z,4.20
2022-12-08T09:50:16.425Z,5.20
2022-12-08T09:55:39.429Z,3.80
2022-12-08T10:00:46.275Z,2.90
2022-12-08T10:06:18.143Z,2.60
2022-12-08T10:11:38.852Z,2.00
2022-12-08T10:16:48.404Z,4.30
2022-12-08T10:22:12.751Z,3.40
2022-12-08T10:27:16.081Z,3.30
2022-12-08T10:32:23.236Z,4.60
2022-12-08T10:37:26.557Z,3.40
2022-12-08T10:42:39.174Z,3.70
2022-12-08T10:47:45.505Z,4.30
2022-12-08T10:53:27.131Z,5.20
2022-12-08T10:58:36.374Z,4.00
2022-12-08T11:03:48.083Z,4.00
2022-12-08T11:08:55.374Z,5.00
2022-12-08T11:13:58.896Z,3.90
2022-12-08T11:19:07.002Z,4.80
2022-12-08T11:24:16.221Z,4.50
2022-12-08T11:29:20.333Z,4.20
2022-12-08T11:34:37.681Z,4.70
2022-12-08T11:39:47.513Z,5.70
2022-12-08T11:45:00.947Z,4.30
2022-12-08T11:50:32.106Z,4.40
2022-12-08T11:55:40.677Z,4.70
2022-12-08T12:00:46.389Z,4.50
2022-12-08T12:06:54.257Z,4.80
2022-12-08T12:12:16.568Z,3.70
2022-12-08T12:17:45.856Z,2.70
2022-12-08T12:22:57.151Z,4.90
2022-12-08T12:28:06.193Z,5.40
2022-12-08T12:33:13.718Z,4.20
2022-12-08T12:38:49.359Z,5.00
2022-12-08T12:44:14.842Z,5.50
2022-12-08T12:49:43.008Z,6.20
2022-12-08T12:54:51.694Z,5.10
2022-12-08T12:59:56.016Z,5.40
2022-12-08T13:05:02.707Z,5.70
2022-12-08T13:10:24.777Z,6.40
2022-12-08T13:16:05.511Z,6.60
2022-12-08T13:21:17.268Z,7.60
2022-12-08T13:26:24.348Z,8.70
2022-12-08T13:31:46.655Z,8.00
2022-12-08T13:37:10.871Z,8.90
2022-12-08T13:42:32.804Z,7.00
2022-12-08T13:47:59.575Z,7.20
2022-12-08T13:59:07.761Z,5.00
2022-12-08T14:04:47.468Z,7.60
2022-12-08T14:09:43.667Z,8.60
2022-12-08T14:15:06.022Z,7.10
2022-12-08T14:20:12.476Z,4.60
2022-12-08T14:25:18.411Z,10.60
2022-12-08T14:30:26.350Z,10.90
2022-12-08T14:35:38.334Z,10.10
2022-12-08T14:41:02.932Z,9.30
2022-12-08T14:46:21.046Z,6.20
2022-12-08T14:51:29.627Z,6.60
2022-12-08T14:56:39.359Z,11.80
2022-12-08T15:01:44.367Z,9.90
2022-12-08T15:06:47.604Z,12.60
2022-12-08T15:12:01.989Z,11.20
2022-12-08T15:17:40.272Z,10.90
2022-12-08T15:22:43.451Z,14.10
2022-12-08T15:27:50.492Z,13.80
2022-12-08T15:32:56.707Z,9.20
2022-12-08T15:38:00.205Z,12.40
2022-12-08T15:43:03.814Z,10.30
2022-12-08T15:48:08.145Z,11.60
2022-12-08T15:53:11.901Z,18.40
2022-12-08T16:09:20.168Z,15.30
2022-12-08T16:15:23.800Z,17.20
2022-12-08T17:36:15.151Z,17.50
2022-12-08T17:41:18.976Z,10.60
2022-12-08T17:46:23.382Z,13.70
2022-12-08T17:51:26.698Z,15.00
2022-12-08T17:56:30.008Z,15.00
2022-12-08T18:01:34.865Z,11.20
2022-12-08T18:06:39.462Z,13.10
2022-12-08T18:11:44.013Z,12.80
2022-12-08T18:16:48.126Z,10.60
2022-12-08T18:21:51.441Z,7.90
2022-12-08T18:26:55.767Z,12.10
2022-12-08T18:31:59.352Z,12.20
2022-12-08T18:37:02.535Z,12.50
2022-12-08T18:42:23.138Z,12.20
2022-12-08T18:47:26.411Z,10.20
2022-12-08T18:52:32.394Z,11.30
2022-12-08T18:57:42.622Z,11.20
2022-12-08T19:02:45.836Z,11.50
2022-12-08T19:07:49.254Z,8.40
2022-12-08T19:12:53.690Z,13.20
2022-12-08T19:17:56.866Z,9.20
2022-12-08T19:22:59.994Z,11.80
2022-12-08T19:28:03.317Z,10.80
2022-12-08T19:33:06.549Z,11.00
2022-12-08T19:38:09.797Z,10.50
2022-12-08T19:43:40.815Z,7.40
2022-12-08T19:48:45.028Z,10.80
2022-12-08T19:53:48.249Z,11.10
2022-12-08T19:58:51.464Z,11.90
2022-12-08T20:03:54.609Z,8.20
2022-12-08T20:08:59.881Z,10.60
2022-12-08T20:14:03.205Z,11.90
2022-12-08T20:19:06.407Z,10.10
2022-12-08T20:24:09.725Z,9.10
2022-12-08T20:29:14.975Z,7.30
2022-12-08T20:34:19.858Z,9.60
2022-12-08T20:39:26.192Z,8.00
2022-12-08T20:44:30.404Z,10.10
2022-12-08T20:49:34.885Z,11.10
2022-12-08T20:54:39.295Z,10.70
2022-12-08T20:59:42.699Z,8.60
2022-12-08T21:04:46.033Z,10.40
2022-12-08T21:09:49.408Z,12.30
2022-12-08T21:14:52.879Z,10.80
2022-12-08T21:19:56.295Z,10.80
2022-12-08T21:25:00.029Z,8.40
2022-12-08T21:30:04.433Z,13.10
2022-12-08T21:35:09.014Z,10.80
2022-12-08T21:40:13.266Z,13.70
2022-12-08T21:45:19.437Z,12.20
2022-12-08T21:50:24.109Z,13.00
2022-12-08T21:55:27.805Z,16.10
2022-12-08T22:00:31.329Z,14.80
2022-12-08T22:05:36.250Z,16.20
2022-12-08T22:10:39.678Z,15.00
2022-12-08T22:15:42.978Z,21.70
2022-12-08T22:20:46.190Z,18.30
2022-12-08T22:26:00.488Z,21.20
2022-12-08T22:31:17.467Z,20.60
2022-12-08T22:36:24.111Z,18.50
2022-12-08T22:41:27.464Z,10.80
2022-12-08T22:46:31.815Z,13.10
2022-12-08T22:51:38.798Z,13.70
2022-12-08T22:56:42.459Z,13.50
2022-12-08T23:01:45.627Z,13.50
2022-12-08T23:06:48.958Z,14.20
2022-12-08T23:11:53.606Z,17.20
2022-12-08T23:16:57.031Z,15.40
2022-12-08T23:22:00.386Z,12.70
2022-12-08T23:27:03.761Z,14.00
2022-12-08T23:32:07.327Z,17.80
2022-12-08T23:37:11.593Z,14.20
2022-12-08T23:42:14.979Z,14.20
2022-12-08T23:47:18.578Z,13.60
2022-12-08T23:52:22.073Z,14.20
2022-12-08T23:57:25.546Z,14.60
